Airfield :
LOGIN :

Register | Disclaimer

   EN    FR    IT 

 










Legend :    VFR   Marginal VFR   IFR   Intensive IFR   Very Intensive IFR
Visi :
Ceiling :
>= 8 km
>= 3000ft
5 to 8 km
1000 to 3000 ft
1500m to 5 km
500 to 1000 ft
800 to 1500m
200 to 500 ft
< 800m
< 200 ft
Symbols :   Thunderstorms  Fog  Heavy snow  Heavy precipitations  Wind > 20 kt
SIGMETs :     Misc.  Thunderstorms  Icing  Turbulence  Mountain Waves  Volcanic Ashes






- Airport Elevation : 32 ft
- IATA code : LKZ


EGUL - RAF Lakenheath

CURRENT METAR :
  • 080955Z 25003KT 9999 FEW010 M01/M01 A2985 RMK AO2A SLP112 T10061007 $

EXPIRED METARs :
  • 080855Z 24006KT 9999 FEW010 M03/M03 A2984 RMK AO2A SLP109 T10291030 57003 $
  • 080755Z 24004KT 9999 FEW060 M03/M04 A2985 RMK AO2A SLP112 T10351036 $

TAF AMD TAF EGUL
Valid from the 08 at 08:00 until the 09 at 12:00 UTC


080819Z 0808/0912 26006KT 9999 FEW010 FEW055 QNH2982INS
BECMG 0809/0810 27009KT 9999 FEW045 QNH2977INS
BECMG 0818/0819 27006KT 9999 BKN025 620254 QNH2974INS
BECMG 0820/0821 28006KT 8000 BR FEW008 BKN015 620159 QNH2972INS
BECMG 0823/0824 29006KT 4000 BR FEW004 BKN012 620129 QNH2970INS
TEMPO 0901/0907 1600 -SN BR BKN004 OVC012 620049
BECMG 0907/0908 30006KT 8000 BR SCT010 BKN020 620209 QNH2969INS TX03/0814Z TNM04/0808Z



MET'MAP, your aeronautical weather chart ! - Copyright ORBIFLY December 2007 - Disclaimer

ORBIFLY MET'MAP TEAM :

Programming & Development : Alexandra Zaïnal
Original concept : Baudouin d'Aumeries
Technical & hardware support : Manuel Goepfert
Assistance : Marc-Olivier Méhu




SOURCES & CREDITS :

   NOAA